sensor_id;sensor_type;location;lat;lon;timestamp;P1;durP1;ratioP1;P2;durP2;ratioP2
66575;SDS011;53428;47.686;16.584;2023-05-24T00:03:01;8.75;;;6.10;;
66575;SDS011;53428;47.686;16.584;2023-05-24T00:08:02;9.73;;;6.03;;
66575;SDS011;53428;47.686;16.584;2023-05-24T00:13:02;10.73;;;7.95;;
66575;SDS011;53428;47.686;16.584;2023-05-24T00:18:02;11.57;;;7.75;;
66575;SDS011;53428;47.686;16.584;2023-05-24T00:23:01;9.02;;;6.95;;
66575;SDS011;53428;47.686;16.584;2023-05-24T00:28:00;10.50;;;7.47;;
66575;SDS011;53428;47.686;16.584;2023-05-24T00:33:00;13.30;;;7.85;;
66575;SDS011;53428;47.686;16.584;2023-05-24T00:37:59;9.80;;;6.95;;
66575;SDS011;53428;47.686;16.584;2023-05-24T00:42:58;8.40;;;6.60;;
66575;SDS011;53428;47.686;16.584;2023-05-24T00:47:58;9.48;;;5.90;;
66575;SDS011;53428;47.686;16.584;2023-05-24T00:52:58;8.15;;;6.57;;
66575;SDS011;53428;47.686;16.584;2023-05-24T00:57:59;10.23;;;6.22;;
66575;SDS011;53428;47.686;16.584;2023-05-24T01:02:59;9.02;;;6.63;;
66575;SDS011;53428;47.686;16.584;2023-05-24T01:13:23;10.20;;;6.93;;
66575;SDS011;53428;47.686;16.584;2023-05-24T01:18:30;8.10;;;6.25;;
66575;SDS011;53428;47.686;16.584;2023-05-24T01:28:32;10.90;;;6.50;;
66575;SDS011;53428;47.686;16.584;2023-05-24T01:33:32;8.82;;;6.70;;
66575;SDS011;53428;47.686;16.584;2023-05-24T01:38:32;8.75;;;6.60;;
66575;SDS011;53428;47.686;16.584;2023-05-24T01:43:37;7.93;;;6.32;;
66575;SDS011;53428;47.686;16.584;2023-05-24T01:53:48;10.60;;;7.43;;
66575;SDS011;53428;47.686;16.584;2023-05-24T01:58:50;8.82;;;6.68;;
66575;SDS011;53428;47.686;16.584;2023-05-24T02:03:52;8.35;;;6.20;;
66575;SDS011;53428;47.686;16.584;2023-05-24T02:08:51;7.60;;;5.97;;
66575;SDS011;53428;47.686;16.584;2023-05-24T02:13:51;11.77;;;6.57;;
66575;SDS011;53428;47.686;16.584;2023-05-24T02:18:50;8.15;;;5.50;;
66575;SDS011;53428;47.686;16.584;2023-05-24T02:23:49;11.18;;;6.82;;
66575;SDS011;53428;47.686;16.584;2023-05-24T02:28:49;8.77;;;5.97;;
66575;SDS011;53428;47.686;16.584;2023-05-24T02:33:48;7.10;;;5.93;;
66575;SDS011;53428;47.686;16.584;2023-05-24T02:38:48;6.22;;;5.05;;
66575;SDS011;53428;47.686;16.584;2023-05-24T02:43:49;8.40;;;6.95;;
66575;SDS011;53428;47.686;16.584;2023-05-24T02:48:48;13.18;;;6.05;;
66575;SDS011;53428;47.686;16.584;2023-05-24T02:53:48;9.65;;;5.80;;
66575;SDS011;53428;47.686;16.584;2023-05-24T02:58:47;8.02;;;6.18;;
66575;SDS011;53428;47.686;16.584;2023-05-24T03:03:47;7.80;;;6.13;;
66575;SDS011;53428;47.686;16.584;2023-05-24T03:08:46;8.63;;;5.97;;
66575;SDS011;53428;47.686;16.584;2023-05-24T03:13:47;8.43;;;6.07;;
66575;SDS011;53428;47.686;16.584;2023-05-24T03:18:47;10.57;;;5.70;;
66575;SDS011;53428;47.686;16.584;2023-05-24T03:23:49;7.72;;;6.35;;
66575;SDS011;53428;47.686;16.584;2023-05-24T03:28:48;9.15;;;6.90;;
66575;SDS011;53428;47.686;16.584;2023-05-24T03:33:52;8.88;;;6.50;;
66575;SDS011;53428;47.686;16.584;2023-05-24T03:38:51;10.05;;;6.07;;
66575;SDS011;53428;47.686;16.584;2023-05-24T03:43:51;11.10;;;7.05;;
66575;SDS011;53428;47.686;16.584;2023-05-24T03:48:50;6.45;;;5.35;;
66575;SDS011;53428;47.686;16.584;2023-05-24T03:53:49;9.60;;;6.13;;
66575;SDS011;53428;47.686;16.584;2023-05-24T03:58:49;11.35;;;5.93;;
66575;SDS011;53428;47.686;16.584;2023-05-24T04:03:50;8.73;;;6.22;;
66575;SDS011;53428;47.686;16.584;2023-05-24T04:08:50;7.85;;;5.88;;
66575;SDS011;53428;47.686;16.584;2023-05-24T04:13:50;7.28;;;5.93;;
66575;SDS011;53428;47.686;16.584;2023-05-24T04:18:50;9.70;;;5.70;;
66575;SDS011;53428;47.686;16.584;2023-05-24T04:23:49;7.47;;;5.00;;
66575;SDS011;53428;47.686;16.584;2023-05-24T04:28:48;6.93;;;5.50;;
66575;SDS011;53428;47.686;16.584;2023-05-24T04:33:48;10.60;;;5.50;;
66575;SDS011;53428;47.686;16.584;2023-05-24T04:38:47;6.35;;;4.97;;
66575;SDS011;53428;47.686;16.584;2023-05-24T04:43:47;6.68;;;4.97;;
66575;SDS011;53428;47.686;16.584;2023-05-24T04:48:48;5.03;;;4.15;;
66575;SDS011;53428;47.686;16.584;2023-05-24T04:53:47;7.03;;;3.83;;
66575;SDS011;53428;47.686;16.584;2023-05-24T04:58:46;5.97;;;4.05;;
66575;SDS011;53428;47.686;16.584;2023-05-24T05:03:45;5.65;;;4.10;;
66575;SDS011;53428;47.686;16.584;2023-05-24T05:08:45;6.05;;;3.72;;
66575;SDS011;53428;47.686;16.584;2023-05-24T05:13:45;3.55;;;2.95;;
66575;SDS011;53428;47.686;16.584;2023-05-24T05:18:44;6.97;;;3.65;;
66575;SDS011;53428;47.686;16.584;2023-05-24T05:23:44;6.57;;;3.75;;
66575;SDS011;53428;47.686;16.584;2023-05-24T05:28:44;11.55;;;3.90;;
66575;SDS011;53428;47.686;16.584;2023-05-24T05:33:43;6.15;;;3.65;;
66575;SDS011;53428;47.686;16.584;2023-05-24T05:38:42;7.20;;;3.67;;
66575;SDS011;53428;47.686;16.584;2023-05-24T05:43:41;5.63;;;3.75;;
66575;SDS011;53428;47.686;16.584;2023-05-24T05:48:40;11.98;;;3.67;;
66575;SDS011;53428;47.686;16.584;2023-05-24T05:53:40;4.57;;;3.88;;
66575;SDS011;53428;47.686;16.584;2023-05-24T05:58:39;5.30;;;3.05;;
66575;SDS011;53428;47.686;16.584;2023-05-24T06:03:38;4.80;;;3.35;;
66575;SDS011;53428;47.686;16.584;2023-05-24T06:08:38;3.58;;;3.13;;
66575;SDS011;53428;47.686;16.584;2023-05-24T06:13:38;5.40;;;2.95;;
66575;SDS011;53428;47.686;16.584;2023-05-24T06:18:37;3.05;;;2.72;;
66575;SDS011;53428;47.686;16.584;2023-05-24T06:23:37;6.25;;;2.95;;
66575;SDS011;53428;47.686;16.584;2023-05-24T06:28:36;4.38;;;3.35;;
66575;SDS011;53428;47.686;16.584;2023-05-24T06:33:35;5.38;;;3.25;;
66575;SDS011;53428;47.686;16.584;2023-05-24T06:38:34;4.60;;;3.13;;
66575;SDS011;53428;47.686;16.584;2023-05-24T06:43:34;5.18;;;3.30;;
66575;SDS011;53428;47.686;16.584;2023-05-24T06:48:33;4.53;;;2.88;;
66575;SDS011;53428;47.686;16.584;2023-05-24T06:53:32;5.10;;;2.67;;
66575;SDS011;53428;47.686;16.584;2023-05-24T06:58:31;10.57;;;2.90;;
66575;SDS011;53428;47.686;16.584;2023-05-24T07:03:30;5.95;;;3.08;;
66575;SDS011;53428;47.686;16.584;2023-05-24T07:08:30;2.80;;;2.60;;
66575;SDS011;53428;47.686;16.584;2023-05-24T07:13:29;3.17;;;2.33;;
66575;SDS011;53428;47.686;16.584;2023-05-24T07:18:29;7.68;;;3.20;;
66575;SDS011;53428;47.686;16.584;2023-05-24T07:23:28;3.30;;;2.35;;
66575;SDS011;53428;47.686;16.584;2023-05-24T07:28:27;4.05;;;2.85;;
66575;SDS011;53428;47.686;16.584;2023-05-24T07:33:26;4.32;;;2.78;;
66575;SDS011;53428;47.686;16.584;2023-05-24T07:38:26;2.50;;;2.30;;
66575;SDS011;53428;47.686;16.584;2023-05-24T07:43:26;7.60;;;3.10;;
66575;SDS011;53428;47.686;16.584;2023-05-24T07:48:26;3.63;;;3.05;;
66575;SDS011;53428;47.686;16.584;2023-05-24T07:53:25;8.45;;;2.40;;
66575;SDS011;53428;47.686;16.584;2023-05-24T07:58:25;3.85;;;2.58;;
66575;SDS011;53428;47.686;16.584;2023-05-24T08:03:25;3.40;;;2.38;;
66575;SDS011;53428;47.686;16.584;2023-05-24T08:08:25;3.03;;;2.58;;
66575;SDS011;53428;47.686;16.584;2023-05-24T08:13:24;2.45;;;2.25;;
66575;SDS011;53428;47.686;16.584;2023-05-24T08:18:24;3.30;;;2.35;;
66575;SDS011;53428;47.686;16.584;2023-05-24T08:23:23;4.60;;;2.38;;
66575;SDS011;53428;47.686;16.584;2023-05-24T08:28:22;4.55;;;2.90;;
66575;SDS011;53428;47.686;16.584;2023-05-24T08:33:21;6.80;;;2.55;;
66575;SDS011;53428;47.686;16.584;2023-05-24T08:38:21;3.25;;;2.85;;
66575;SDS011;53428;47.686;16.584;2023-05-24T08:43:20;3.58;;;2.40;;
66575;SDS011;53428;47.686;16.584;2023-05-24T08:48:21;4.03;;;2.38;;
66575;SDS011;53428;47.686;16.584;2023-05-24T08:58:22;2.40;;;2.20;;
66575;SDS011;53428;47.686;16.584;2023-05-24T09:03:22;2.92;;;2.55;;
66575;SDS011;53428;47.686;16.584;2023-05-24T09:08:22;3.80;;;2.85;;
66575;SDS011;53428;47.686;16.584;2023-05-24T09:13:22;7.30;;;2.33;;
66575;SDS011;53428;47.686;16.584;2023-05-24T09:18:22;4.85;;;3.28;;
66575;SDS011;53428;47.686;16.584;2023-05-24T09:23:23;3.15;;;2.28;;
66575;SDS011;53428;47.686;16.584;2023-05-24T09:28:24;3.42;;;2.90;;
66575;SDS011;53428;47.686;16.584;2023-05-24T09:33:27;2.75;;;2.33;;
66575;SDS011;53428;47.686;16.584;2023-05-24T09:38:28;2.60;;;2.40;;
66575;SDS011;53428;47.686;16.584;2023-05-24T09:43:28;2.88;;;2.58;;
66575;SDS011;53428;47.686;16.584;2023-05-24T09:48:29;3.63;;;2.65;;
66575;SDS011;53428;47.686;16.584;2023-05-24T09:53:34;4.30;;;2.28;;
66575;SDS011;53428;47.686;16.584;2023-05-24T09:58:37;3.65;;;2.70;;
66575;SDS011;53428;47.686;16.584;2023-05-24T10:03:37;3.50;;;2.70;;
66575;SDS011;53428;47.686;16.584;2023-05-24T10:08:36;2.47;;;2.28;;
66575;SDS011;53428;47.686;16.584;2023-05-24T10:13:36;2.50;;;2.25;;
66575;SDS011;53428;47.686;16.584;2023-05-24T10:18:37;3.55;;;2.33;;
66575;SDS011;53428;47.686;16.584;2023-05-24T10:23:37;3.22;;;2.65;;
66575;SDS011;53428;47.686;16.584;2023-05-24T10:28:39;4.50;;;1.92;;
66575;SDS011;53428;47.686;16.584;2023-05-24T10:33:41;1.90;;;1.80;;
66575;SDS011;53428;47.686;16.584;2023-05-24T10:38:42;2.83;;;1.98;;
66575;SDS011;53428;47.686;16.584;2023-05-24T10:43:45;2.35;;;1.50;;
66575;SDS011;53428;47.686;16.584;2023-05-24T10:48:57;3.50;;;2.15;;
66575;SDS011;53428;47.686;16.584;2023-05-24T10:54:09;1.80;;;1.58;;
66575;SDS011;53428;47.686;16.584;2023-05-24T10:59:22;1.80;;;1.70;;
66575;SDS011;53428;47.686;16.584;2023-05-24T11:04:32;3.60;;;1.63;;
66575;SDS011;53428;47.686;16.584;2023-05-24T11:09:35;3.97;;;1.70;;
66575;SDS011;53428;47.686;16.584;2023-05-24T11:14:36;3.10;;;1.52;;
66575;SDS011;53428;47.686;16.584;2023-05-24T11:19:39;2.78;;;1.80;;
66575;SDS011;53428;47.686;16.584;2023-05-24T11:24:44;2.17;;;1.73;;
66575;SDS011;53428;47.686;16.584;2023-05-24T11:29:45;1.70;;;1.60;;
66575;SDS011;53428;47.686;16.584;2023-05-24T11:34:46;1.65;;;1.55;;
66575;SDS011;53428;47.686;16.584;2023-05-24T11:39:51;3.47;;;1.70;;
66575;SDS011;53428;47.686;16.584;2023-05-24T11:44:51;2.10;;;1.90;;
66575;SDS011;53428;47.686;16.584;2023-05-24T11:49:51;2.33;;;1.63;;
66575;SDS011;53428;47.686;16.584;2023-05-24T11:54:50;4.22;;;1.45;;
66575;SDS011;53428;47.686;16.584;2023-05-24T11:59:50;1.73;;;1.63;;
66575;SDS011;53428;47.686;16.584;2023-05-24T12:04:49;2.67;;;1.92;;
66575;SDS011;53428;47.686;16.584;2023-05-24T12:09:49;2.47;;;1.52;;
66575;SDS011;53428;47.686;16.584;2023-05-24T12:14:48;1.98;;;1.33;;
66575;SDS011;53428;47.686;16.584;2023-05-24T12:19:48;2.13;;;1.92;;
66575;SDS011;53428;47.686;16.584;2023-05-24T12:24:49;1.92;;;1.48;;
66575;SDS011;53428;47.686;16.584;2023-05-24T12:29:50;1.48;;;1.38;;
66575;SDS011;53428;47.686;16.584;2023-05-24T12:34:49;7.97;;;1.50;;
66575;SDS011;53428;47.686;16.584;2023-05-24T12:39:48;2.97;;;1.75;;
66575;SDS011;53428;47.686;16.584;2023-05-24T12:44:48;4.57;;;2.00;;
66575;SDS011;53428;47.686;16.584;2023-05-24T12:49:50;2.25;;;1.67;;
66575;SDS011;53428;47.686;16.584;2023-05-24T12:54:49;2.10;;;1.73;;
66575;SDS011;53428;47.686;16.584;2023-05-24T12:59:49;6.35;;;2.90;;
66575;SDS011;53428;47.686;16.584;2023-05-24T13:04:48;2.60;;;1.83;;
66575;SDS011;53428;47.686;16.584;2023-05-24T13:09:48;2.35;;;1.90;;
66575;SDS011;53428;47.686;16.584;2023-05-24T13:14:48;4.53;;;1.60;;
66575;SDS011;53428;47.686;16.584;2023-05-24T13:19:47;6.38;;;2.10;;
66575;SDS011;53428;47.686;16.584;2023-05-24T13:24:47;3.75;;;1.48;;
66575;SDS011;53428;47.686;16.584;2023-05-24T13:29:46;1.85;;;1.67;;
66575;SDS011;53428;47.686;16.584;2023-05-24T13:34:46;3.40;;;1.77;;
66575;SDS011;53428;47.686;16.584;2023-05-24T13:39:45;2.38;;;1.65;;
66575;SDS011;53428;47.686;16.584;2023-05-24T13:44:45;2.58;;;1.85;;
66575;SDS011;53428;47.686;16.584;2023-05-24T13:49:45;2.55;;;1.92;;
66575;SDS011;53428;47.686;16.584;2023-05-24T13:54:46;1.73;;;1.40;;
66575;SDS011;53428;47.686;16.584;2023-05-24T13:59:48;3.78;;;1.83;;
66575;SDS011;53428;47.686;16.584;2023-05-24T14:04:47;2.47;;;1.70;;
66575;SDS011;53428;47.686;16.584;2023-05-24T14:09:55;2.88;;;2.22;;
66575;SDS011;53428;47.686;16.584;2023-05-24T14:14:55;3.20;;;2.30;;
66575;SDS011;53428;47.686;16.584;2023-05-24T14:19:54;8.38;;;2.17;;
66575;SDS011;53428;47.686;16.584;2023-05-24T14:24:54;3.15;;;1.88;;
66575;SDS011;53428;47.686;16.584;2023-05-24T14:29:53;3.17;;;1.70;;
66575;SDS011;53428;47.686;16.584;2023-05-24T14:34:52;5.15;;;2.00;;
66575;SDS011;53428;47.686;16.584;2023-05-24T14:39:52;4.57;;;1.83;;
66575;SDS011;53428;47.686;16.584;2023-05-24T14:44:51;2.13;;;1.77;;
66575;SDS011;53428;47.686;16.584;2023-05-24T14:49:50;1.80;;;1.70;;
66575;SDS011;53428;47.686;16.584;2023-05-24T14:54:50;3.90;;;2.20;;
66575;SDS011;53428;47.686;16.584;2023-05-24T14:59:49;2.15;;;1.70;;
66575;SDS011;53428;47.686;16.584;2023-05-24T15:04:49;4.32;;;1.90;;
66575;SDS011;53428;47.686;16.584;2023-05-24T15:09:51;4.63;;;1.85;;
66575;SDS011;53428;47.686;16.584;2023-05-24T15:14:50;1.77;;;1.63;;
66575;SDS011;53428;47.686;16.584;2023-05-24T15:19:50;2.05;;;1.85;;
66575;SDS011;53428;47.686;16.584;2023-05-24T15:24:49;2.75;;;1.80;;
66575;SDS011;53428;47.686;16.584;2023-05-24T15:29:48;3.00;;;1.70;;
66575;SDS011;53428;47.686;16.584;2023-05-24T15:34:48;5.85;;;2.20;;
66575;SDS011;53428;47.686;16.584;2023-05-24T15:39:48;3.30;;;2.05;;
66575;SDS011;53428;47.686;16.584;2023-05-24T15:44:48;4.00;;;1.60;;
66575;SDS011;53428;47.686;16.584;2023-05-24T15:49:48;3.17;;;1.92;;
66575;SDS011;53428;47.686;16.584;2023-05-24T15:54:47;6.07;;;3.10;;
66575;SDS011;53428;47.686;16.584;2023-05-24T15:59:47;5.68;;;2.10;;
66575;SDS011;53428;47.686;16.584;2023-05-24T16:04:46;4.53;;;2.20;;
66575;SDS011;53428;47.686;16.584;2023-05-24T16:09:45;5.43;;;1.73;;
66575;SDS011;53428;47.686;16.584;2023-05-24T16:14:45;6.38;;;2.10;;
66575;SDS011;53428;47.686;16.584;2023-05-24T16:19:44;4.72;;;1.80;;
66575;SDS011;53428;47.686;16.584;2023-05-24T16:24:45;4.72;;;2.25;;
66575;SDS011;53428;47.686;16.584;2023-05-24T16:29:44;2.67;;;1.83;;
66575;SDS011;53428;47.686;16.584;2023-05-24T16:34:44;6.15;;;2.28;;
66575;SDS011;53428;47.686;16.584;2023-05-24T16:39:43;2.30;;;2.10;;
66575;SDS011;53428;47.686;16.584;2023-05-24T16:44:43;5.00;;;2.47;;
66575;SDS011;53428;47.686;16.584;2023-05-24T16:49:42;2.78;;;2.10;;
66575;SDS011;53428;47.686;16.584;2023-05-24T16:54:41;4.05;;;3.17;;
66575;SDS011;53428;47.686;16.584;2023-05-24T16:59:41;3.13;;;2.10;;
66575;SDS011;53428;47.686;16.584;2023-05-24T17:04:42;2.42;;;1.80;;
66575;SDS011;53428;47.686;16.584;2023-05-24T17:09:42;3.72;;;2.28;;
66575;SDS011;53428;47.686;16.584;2023-05-24T17:14:41;3.70;;;2.47;;
66575;SDS011;53428;47.686;16.584;2023-05-24T17:19:41;5.38;;;2.92;;
66575;SDS011;53428;47.686;16.584;2023-05-24T17:24:41;3.92;;;2.40;;
66575;SDS011;53428;47.686;16.584;2023-05-24T17:29:40;2.88;;;2.55;;
66575;SDS011;53428;47.686;16.584;2023-05-24T17:34:42;6.10;;;2.30;;
66575;SDS011;53428;47.686;16.584;2023-05-24T17:39:41;3.97;;;2.55;;
66575;SDS011;53428;47.686;16.584;2023-05-24T17:44:40;2.90;;;2.22;;
66575;SDS011;53428;47.686;16.584;2023-05-24T17:49:40;5.40;;;2.60;;
66575;SDS011;53428;47.686;16.584;2023-05-24T17:54:39;5.07;;;2.90;;
66575;SDS011;53428;47.686;16.584;2023-05-24T17:59:39;3.70;;;2.97;;
66575;SDS011;53428;47.686;16.584;2023-05-24T18:04:38;4.93;;;3.50;;
66575;SDS011;53428;47.686;16.584;2023-05-24T18:09:37;4.57;;;3.15;;
66575;SDS011;53428;47.686;16.584;2023-05-24T18:14:37;8.25;;;3.42;;
66575;SDS011;53428;47.686;16.584;2023-05-24T18:19:36;4.32;;;3.53;;
66575;SDS011;53428;47.686;16.584;2023-05-24T18:24:35;4.30;;;3.15;;
66575;SDS011;53428;47.686;16.584;2023-05-24T18:29:35;9.35;;;4.00;;
66575;SDS011;53428;47.686;16.584;2023-05-24T18:34:34;3.85;;;3.20;;
66575;SDS011;53428;47.686;16.584;2023-05-24T18:39:34;5.65;;;2.92;;
66575;SDS011;53428;47.686;16.584;2023-05-24T18:44:33;5.20;;;3.33;;
66575;SDS011;53428;47.686;16.584;2023-05-24T18:49:36;3.72;;;3.30;;
66575;SDS011;53428;47.686;16.584;2023-05-24T18:54:35;5.50;;;3.22;;
66575;SDS011;53428;47.686;16.584;2023-05-24T18:59:35;6.93;;;3.67;;
66575;SDS011;53428;47.686;16.584;2023-05-24T19:04:34;8.05;;;3.42;;
66575;SDS011;53428;47.686;16.584;2023-05-24T19:09:34;8.52;;;4.05;;
66575;SDS011;53428;47.686;16.584;2023-05-24T19:14:34;6.43;;;2.97;;
66575;SDS011;53428;47.686;16.584;2023-05-24T19:19:33;5.82;;;3.95;;
66575;SDS011;53428;47.686;16.584;2023-05-24T19:24:33;7.03;;;4.72;;
66575;SDS011;53428;47.686;16.584;2023-05-24T19:29:32;5.00;;;4.00;;
66575;SDS011;53428;47.686;16.584;2023-05-24T19:34:32;9.68;;;4.70;;
66575;SDS011;53428;47.686;16.584;2023-05-24T19:39:33;6.68;;;3.95;;
66575;SDS011;53428;47.686;16.584;2023-05-24T19:44:33;6.00;;;3.60;;
66575;SDS011;53428;47.686;16.584;2023-05-24T19:49:33;5.90;;;3.90;;
66575;SDS011;53428;47.686;16.584;2023-05-24T19:54:32;5.53;;;4.07;;
66575;SDS011;53428;47.686;16.584;2023-05-24T19:59:31;6.80;;;4.45;;
66575;SDS011;53428;47.686;16.584;2023-05-24T20:04:32;7.18;;;4.45;;
66575;SDS011;53428;47.686;16.584;2023-05-24T20:09:31;13.43;;;4.63;;
66575;SDS011;53428;47.686;16.584;2023-05-24T20:14:30;6.53;;;4.13;;
66575;SDS011;53428;47.686;16.584;2023-05-24T20:19:30;6.88;;;4.18;;
66575;SDS011;53428;47.686;16.584;2023-05-24T20:24:29;8.15;;;4.50;;
66575;SDS011;53428;47.686;16.584;2023-05-24T20:29:29;6.88;;;3.83;;
66575;SDS011;53428;47.686;16.584;2023-05-24T20:34:28;8.27;;;4.85;;
66575;SDS011;53428;47.686;16.584;2023-05-24T20:39:27;5.78;;;4.68;;
66575;SDS011;53428;47.686;16.584;2023-05-24T20:44:27;9.43;;;4.75;;
66575;SDS011;53428;47.686;16.584;2023-05-24T20:49:26;9.75;;;4.95;;
66575;SDS011;53428;47.686;16.584;2023-05-24T20:54:25;11.65;;;5.60;;
66575;SDS011;53428;47.686;16.584;2023-05-24T20:59:25;8.93;;;4.70;;
66575;SDS011;53428;47.686;16.584;2023-05-24T21:04:25;10.20;;;5.65;;
66575;SDS011;53428;47.686;16.584;2023-05-24T21:09:24;8.48;;;4.40;;
66575;SDS011;53428;47.686;16.584;2023-05-24T21:14:23;6.32;;;4.60;;
66575;SDS011;53428;47.686;16.584;2023-05-24T21:19:24;10.98;;;4.82;;
66575;SDS011;53428;47.686;16.584;2023-05-24T21:24:23;8.75;;;5.80;;
66575;SDS011;53428;47.686;16.584;2023-05-24T21:29:23;7.75;;;5.60;;
66575;SDS011;53428;47.686;16.584;2023-05-24T21:34:22;8.50;;;5.25;;
66575;SDS011;53428;47.686;16.584;2023-05-24T21:39:21;8.45;;;5.93;;
66575;SDS011;53428;47.686;16.584;2023-05-24T21:44:20;11.07;;;6.30;;
66575;SDS011;53428;47.686;16.584;2023-05-24T21:49:20;15.85;;;7.35;;
66575;SDS011;53428;47.686;16.584;2023-05-24T21:54:19;10.15;;;6.00;;
66575;SDS011;53428;47.686;16.584;2023-05-24T21:59:19;7.03;;;5.95;;
66575;SDS011;53428;47.686;16.584;2023-05-24T22:04:19;6.75;;;5.80;;
66575;SDS011;53428;47.686;16.584;2023-05-24T22:09:18;10.32;;;5.90;;
66575;SDS011;53428;47.686;16.584;2023-05-24T22:14:18;11.75;;;6.93;;
66575;SDS011;53428;47.686;16.584;2023-05-24T22:19:17;11.68;;;6.95;;
66575;SDS011;53428;47.686;16.584;2023-05-24T22:24:17;9.52;;;6.95;;
66575;SDS011;53428;47.686;16.584;2023-05-24T22:29:16;7.63;;;6.00;;
66575;SDS011;53428;47.686;16.584;2023-05-24T22:34:23;14.57;;;7.45;;
66575;SDS011;53428;47.686;16.584;2023-05-24T22:39:26;13.48;;;8.13;;
66575;SDS011;53428;47.686;16.584;2023-05-24T22:44:25;11.65;;;7.28;;
66575;SDS011;53428;47.686;16.584;2023-05-24T22:49:24;13.73;;;7.60;;
66575;SDS011;53428;47.686;16.584;2023-05-24T22:54:27;10.57;;;7.28;;
66575;SDS011;53428;47.686;16.584;2023-05-24T22:59:26;12.32;;;7.50;;
66575;SDS011;53428;47.686;16.584;2023-05-24T23:04:26;13.52;;;7.90;;
66575;SDS011;53428;47.686;16.584;2023-05-24T23:09:26;12.40;;;8.02;;
66575;SDS011;53428;47.686;16.584;2023-05-24T23:14:32;15.65;;;7.93;;
66575;SDS011;53428;47.686;16.584;2023-05-24T23:19:36;12.98;;;8.43;;
66575;SDS011;53428;47.686;16.584;2023-05-24T23:24:40;13.82;;;8.02;;
66575;SDS011;53428;47.686;16.584;2023-05-24T23:29:40;10.15;;;7.50;;
66575;SDS011;53428;47.686;16.584;2023-05-24T23:34:39;10.85;;;7.63;;
66575;SDS011;53428;47.686;16.584;2023-05-24T23:39:38;17.15;;;8.27;;
66575;SDS011;53428;47.686;16.584;2023-05-24T23:44:38;13.70;;;7.93;;
66575;SDS011;53428;47.686;16.584;2023-05-24T23:49:37;13.13;;;8.65;;
66575;SDS011;53428;47.686;16.584;2023-05-24T23:54:37;15.27;;;8.80;;
66575;SDS011;53428;47.686;16.584;2023-05-24T23:59:37;15.55;;;8.23;;
